Time;durP1;ratioP1;P1;durP2;ratioP2;P2;SDS_P1;SDS_P2;PMS_P1;PMS_P2;Temp;Humidity;BMP_temperature;BMP_pressure;BME280_temperature;BME280_humidity;BME280_pressure;Samples;Min_cycle;Max_cycle;Signal;HPM_P1;HPM_P2
2021/05/22 00:00:54;;;;;;;4.55;3.70;;;;;;;7.06;78.40;93721.34;5032642;28;20392;-41
2021/05/22 00:03:19;;;;;;;7.82;4.68;;;;;;;7.17;78.00;93736.94;5032706;28;20475;-41
2021/05/22 00:05:44;;;;;;;6.43;4.53;;;;;;;7.16;77.73;93741.69;5032794;28;20036;-42
2021/05/22 00:08:10;;;;;;;5.45;3.75;;;;;;;6.85;77.71;93748.56;5032419;28;20095;-42
2021/05/22 00:10:36;;;;;;;3.28;1.98;;;;;;;6.56;78.97;93743.16;5032713;28;20029;-43
2021/05/22 00:13:01;;;;;;;3.75;2.67;;;;;;;6.32;79.10;93732.94;5032186;28;20022;-40
2021/05/22 00:15:27;;;;;;;11.98;6.03;;;;;;;6.38;79.67;93739.13;5032023;28;20056;-42
2021/05/22 00:17:53;;;;;;;9.45;7.85;;;;;;;6.67;79.03;93735.53;5032610;28;20056;-43
2021/05/22 00:20:18;;;;;;;8.18;5.15;;;;;;;6.82;77.86;93735.13;5032462;28;20029;-44
2021/05/22 00:22:45;;;;;;;4.35;3.40;;;;;;;6.62;78.06;93725.38;5032125;28;20030;-42
2021/05/22 00:25:11;;;;;;;5.30;3.15;;;;;;;6.65;78.04;93729.06;5032260;28;20064;-42
2021/05/22 00:27:37;;;;;;;5.00;2.70;;;;;;;6.46;78.89;93729.06;5032336;28;20113;-41
2021/05/22 00:30:04;;;;;;;4.57;2.85;;;;;;;6.27;80.49;93719.28;5031961;28;20135;-41
2021/05/22 00:32:30;;;;;;;4.90;3.72;;;;;;;6.49;80.92;93719.81;5031733;28;20040;-42
2021/05/22 00:34:55;;;;;;;3.38;2.65;;;;;;;6.61;80.94;93726.63;5030606;28;20029;-38
2021/05/22 00:37:21;;;;;;;3.30;3.00;;;;;;;6.64;80.75;93722.88;5030757;28;20021;-39
2021/05/22 00:39:46;;;;;;;2.53;2.10;;;;;;;6.76;80.49;93715.22;5030482;28;20090;-39
2021/05/22 00:42:11;;;;;;;3.63;2.28;;;;;;;6.93;78.93;93718.50;5031678;28;20116;-39
2021/05/22 00:45:09;;;;;;;2.50;2.30;;;;;;;6.81;78.84;93714.44;5031003;28;20077;-39
2021/05/22 00:47:40;;;;;;;3.38;2.28;;;;;;;6.52;79.56;93712.53;5031885;28;20076;-39
2021/05/22 00:50:09;;;;;;;2.45;2.20;;;;;;;6.27;79.81;93700.84;5031838;28;20026;-40
2021/05/22 00:52:34;;;;;;;3.77;2.90;;;;;;;6.26;79.64;93712.31;5031870;28;20041;-40
2021/05/22 00:55:00;;;;;;;3.13;2.75;;;;;;;6.06;80.44;93716.25;5031460;28;20459;-42
2021/05/22 00:57:26;;;;;;;6.18;2.55;;;;;;;6.00;81.13;93694.38;5013989;28;20415;-40
2021/05/22 00:59:52;;;;;;;3.38;3.08;;;;;;;6.17;81.21;93716.16;5031520;28;20028;-41
2021/05/22 01:02:22;;;;;;;3.85;3.22;;;;;;;6.05;81.48;93699.06;5031325;28;20039;-40
2021/05/22 01:04:48;;;;;;;6.55;3.95;;;;;;;6.40;80.82;93706.44;5031581;28;20111;-41
2021/05/22 01:07:14;;;;;;;4.47;2.90;;;;;;;6.46;81.01;93703.63;5030910;28;20186;-40
2021/05/22 01:09:41;;;;;;;7.82;3.22;;;;;;;6.39;81.15;93710.41;5031621;28;20037;-40
2021/05/22 01:12:08;;;;;;;1.98;1.83;;;;;;;6.56;80.73;93707.50;5031392;28;20036;-40
2021/05/22 01:14:42;;;;;;;1.48;1.23;;;;;;;6.49;81.05;93700.59;5030952;28;20036;-40
2021/05/22 01:17:08;;;;;;;1.92;1.70;;;;;;;6.46;80.85;93690.66;5031321;28;20467;-42
2021/05/22 01:20:01;;;;;;;1.60;1.50;;;;;;;6.60;80.56;93702.47;5013402;28;20131;-40
2021/05/22 01:22:31;;;;;;;2.53;1.95;;;;;;;6.50;81.15;93693.84;5030468;28;20427;-39
2021/05/22 01:25:26;;;;;;;1.75;1.33;;;;;;;6.58;81.42;93694.75;5012911;28;20025;-39
2021/05/22 01:27:51;;;;;;;1.55;1.35;;;;;;;6.69;81.35;93697.34;5031269;28;20414;-39
2021/05/22 01:30:18;;;;;;;1.52;1.42;;;;;;;6.69;81.48;93707.59;5013592;28;20029;-40
2021/05/22 01:32:44;;;;;;;1.23;1.08;;;;;;;6.78;80.76;93705.22;5030877;28;20030;-40
2021/05/22 01:35:11;;;;;;;2.35;1.45;;;;;;;6.85;79.44;93701.91;5030666;28;20026;-39
2021/05/22 01:37:36;;;;;;;2.40;2.20;;;;;;;6.95;79.10;93699.53;5030691;28;20064;-39
2021/05/22 01:40:03;;;;;;;1.65;1.20;;;;;;;6.96;78.57;93695.53;5030814;28;20064;-39
2021/05/22 01:42:29;;;;;;;1.83;1.70;;;;;;;6.89;78.64;93690.63;5044793;28;20029;-39
2021/05/22 01:44:55;;;;;;;1.83;1.73;;;;;;;6.62;79.18;93697.97;5031742;28;20040;-39
2021/05/22 01:47:21;;;;;;;1.48;1.30;;;;;;;6.44;80.13;93695.16;5013085;28;20029;-39
2021/05/22 01:49:47;;;;;;;1.65;1.55;;;;;;;6.35;80.22;93690.03;5012905;28;20514;-39
2021/05/22 01:52:13;;;;;;;1.48;1.23;;;;;;;6.39;79.54;93691.22;5030791;28;20017;-39
2021/05/22 01:54:39;;;;;;;1.85;1.75;;;;;;;6.23;79.22;93702.38;5012041;28;20113;-40
2021/05/22 01:57:05;;;;;;;1.65;1.55;;;;;;;6.21;79.22;93691.19;5012903;28;20030;-41
2021/05/22 01:59:34;;;;;;;1.05;0.80;;;;;;;6.13;79.24;93704.00;5012920;28;20025;-40
2021/05/22 02:02:00;;;;;;;1.77;1.67;;;;;;;6.21;78.66;93699.41;5030577;28;20057;-40
2021/05/22 02:04:26;;;;;;;4.60;1.98;;;;;;;5.98;79.27;93690.66;5030568;28;20121;-42
2021/05/22 02:06:53;;;;;;;1.52;1.42;;;;;;;5.93;79.98;93696.94;5011957;28;20026;-41
2021/05/22 02:09:20;;;;;;;2.05;1.83;;;;;;;6.01;80.12;93706.84;5012142;28;20557;-41
2021/05/22 02:11:47;;;;;;;1.33;1.23;;;;;;;6.02;80.65;93707.59;5020345;28;20025;-42
2021/05/22 02:14:18;;;;;;;2.15;1.85;;;;;;;6.05;80.78;93707.28;5006227;28;20029;-42
2021/05/22 02:16:48;;;;;;;1.95;1.40;;;;;;;6.06;81.50;93708.75;5030449;28;20426;-41
2021/05/22 02:19:15;;;;;;;1.70;1.60;;;;;;;6.10;81.30;93698.28;5029989;28;20521;-43
2021/05/22 02:21:42;;;;;;;1.80;1.58;;;;;;;6.37;80.26;93701.22;5029879;28;20112;-39
2021/05/22 02:24:14;;;;;;;1.60;1.40;;;;;;;6.25;80.27;93695.13;5012829;28;20021;-39
2021/05/22 02:26:40;;;;;;;1.67;1.30;;;;;;;6.23;79.88;93697.66;5029679;28;20498;-39
2021/05/22 02:29:08;;;;;;;1.75;1.65;;;;;;;6.35;79.35;93701.00;5029766;28;20025;-39
2021/05/22 02:31:38;;;;;;;1.48;1.25;;;;;;;6.34;78.85;93692.03;5012729;28;20113;-39
2021/05/22 02:34:03;;;;;;;1.75;1.65;;;;;;;6.19;79.45;93691.72;5029943;28;20029;-39
2021/05/22 02:36:29;;;;;;;1.38;1.27;;;;;;;6.15;79.88;93691.22;5012275;28;20021;-40
2021/05/22 02:38:54;;;;;;;2.20;1.65;;;;;;;6.21;80.76;93702.16;5045161;28;20100;-42
2021/05/22 02:41:21;;;;;;;1.27;1.13;;;;;;;6.25;80.42;93700.63;5032144;28;20035;-41
2021/05/22 02:43:50;;;;;;;3.30;2.60;;;;;;;6.34;79.38;93694.78;5049953;28;20029;-43
2021/05/22 02:46:16;;;;;;;2.03;1.43;;;;;;;6.25;78.37;93678.69;5032271;28;20410;-40
2021/05/22 02:48:42;;;;;;;2.38;1.63;;;;;;;6.40;77.38;93698.22;5049832;28;20029;-40
2021/05/22 02:51:09;;;;;;;2.70;1.30;;;;;;;6.21;78.06;93702.91;5031634;28;20059;-41
2021/05/22 02:53:36;;;;;;;3.05;1.77;;;;;;;5.95;78.72;93706.16;5050041;28;20024;-43
2021/05/22 02:56:03;;;;;;;1.67;1.17;;;;;;;5.64;78.72;93703.91;5032196;28;20021;-42
2021/05/22 02:58:29;;;;;;;1.75;1.65;;;;;;;5.55;79.38;93706.94;5049629;28;20060;-39
2021/05/22 03:00:55;;;;;;;1.73;1.50;;;;;;;5.55;79.80;93709.69;5031549;28;20028;-40
2021/05/22 03:03:21;;;;;;;1.52;1.42;;;;;;;5.51;80.00;93711.22;5049434;28;20033;-42
2021/05/22 03:05:47;;;;;;;1.55;1.45;;;;;;;5.77;79.20;93706.78;5022882;28;20025;-40
2021/05/22 03:08:12;;;;;;;3.78;1.75;;;;;;;5.73;79.24;93703.56;5014814;28;20529;-42
2021/05/22 03:10:38;;;;;;;1.33;1.20;;;;;;;5.87;78.68;93705.22;5032310;28;20025;-40
2021/05/22 03:13:05;;;;;;;1.20;0.77;;;;;;;5.95;78.80;93706.16;5032417;28;20068;-40
2021/05/22 03:15:31;;;;;;;2.25;1.77;;;;;;;5.98;78.70;93710.59;5029243;28;20494;-40
2021/05/22 03:17:56;;;;;;;3.67;2.20;;;;;;;6.05;78.32;93712.78;5032356;28;20045;-41
2021/05/22 03:20:22;;;;;;;2.20;1.48;;;;;;;6.05;78.63;93717.50;5032475;28;20029;-40
2021/05/22 03:22:47;;;;;;;2.83;2.33;;;;;;;6.06;79.80;93719.72;5032134;28;20021;-40
2021/05/22 03:25:13;;;;;;;4.07;2.75;;;;;;;6.04;79.36;93716.03;5031983;28;20025;-40
2021/05/22 03:27:39;;;;;;;4.10;2.72;;;;;;;6.06;79.72;93716.97;5031602;28;20125;-40
2021/05/22 03:30:06;;;;;;;4.00;3.50;;;;;;;6.21;79.15;93708.38;5032236;28;20103;-40
2021/05/22 03:32:31;;;;;;;7.28;3.78;;;;;;;6.38;77.96;93703.47;5028634;28;20025;-40
2021/05/22 03:34:57;;;;;;;2.65;2.45;;;;;;;6.40;78.31;93711.91;5032194;28;20040;-41
2021/05/22 03:37:23;;;;;;;2.42;2.22;;;;;;;6.44;78.08;93714.38;5013862;28;20152;-41
2021/05/22 03:39:48;;;;;;;4.40;2.53;;;;;;;6.42;77.58;93709.41;5030347;28;20104;-40
2021/05/22 03:42:14;;;;;;;1.40;1.30;;;;;;;6.52;78.26;93729.00;5030527;28;20041;-40
2021/05/22 03:44:40;;;;;;;1.08;1.08;;;;;;;6.49;78.28;93722.53;5030834;28;20052;-41
2021/05/22 03:47:05;;;;;;;1.50;1.40;;;;;;;6.36;78.84;93727.16;5030308;28;20503;-39
2021/05/22 03:49:31;;;;;;;2.30;1.08;;;;;;;6.06;79.02;93738.91;5030398;28;20025;-39
2021/05/22 03:51:56;;;;;;;1.42;1.33;;;;;;;6.24;79.45;93740.25;4993749;28;20474;-39
2021/05/22 03:54:22;;;;;;;1.27;1.20;;;;;;;6.37;79.32;93734.13;5012280;28;20471;-39
2021/05/22 03:56:47;;;;;;;1.33;1.02;;;;;;;6.39;78.19;93750.84;5012371;28;20443;-39
2021/05/22 03:59:13;;;;;;;1.88;1.67;;;;;;;6.49;78.53;93747.22;5011993;28;20707;-39
2021/05/22 04:01:38;;;;;;;3.33;3.03;;;;;;;6.66;79.80;93744.28;5012240;28;20133;-39
2021/05/22 04:04:04;;;;;;;1.70;1.60;;;;;;;6.80;80.10;93746.63;5011926;28;20049;-39
2021/05/22 04:06:29;;;;;;;2.00;1.75;;;;;;;6.98;78.38;93749.91;5012036;28;20045;-39
2021/05/22 04:08:55;;;;;;;2.35;1.30;;;;;;;7.10;77.62;93760.25;5043623;28;20626;-39
2021/05/22 04:11:20;;;;;;;1.58;1.33;;;;;;;7.16;77.91;93763.66;5031902;28;20025;-39
2021/05/22 04:13:46;;;;;;;2.40;2.15;;;;;;;7.22;77.38;93758.81;5031877;28;20023;-41
2021/05/22 04:16:11;;;;;;;2.00;1.85;;;;;;;7.21;78.07;93760.06;5031389;28;20442;-40
2021/05/22 04:18:37;;;;;;;1.85;1.70;;;;;;;6.99;78.56;93754.88;5030328;28;20021;-40
2021/05/22 04:21:02;;;;;;;1.92;1.42;;;;;;;7.14;79.04;93759.94;5030456;28;20407;-41
2021/05/22 04:23:28;;;;;;;4.10;1.67;;;;;;;7.33;78.47;93761.44;5031415;28;20407;-41
2021/05/22 04:25:53;;;;;;;2.20;1.38;;;;;;;7.52;78.16;93767.66;5031648;28;20729;-41
2021/05/22 04:28:19;;;;;;;1.55;1.45;;;;;;;7.76;77.52;93766.03;5031238;28;20434;-41
2021/05/22 04:30:44;;;;;;;1.55;0.85;;;;;;;7.78;76.67;93761.50;5041359;28;20063;-42
2021/05/22 04:33:09;;;;;;;2.30;1.75;;;;;;;8.00;75.92;93771.41;5050991;28;20021;-40
2021/05/22 04:35:35;;;;;;;3.03;2.05;;;;;;;8.02;76.43;93777.13;5032349;28;20036;-43
2021/05/22 04:38:01;;;;;;;1.80;1.48;;;;;;;8.04;76.95;93766.34;5030849;28;20025;-41
2021/05/22 04:40:26;;;;;;;2.08;1.67;;;;;;;8.18;76.81;93776.13;5031112;28;20025;-42
2021/05/22 04:42:52;;;;;;;32.58;4.40;;;;;;;8.22;77.03;93773.81;5031453;28;20055;-41
2021/05/22 04:45:17;;;;;;;1.52;1.42;;;;;;;8.29;76.89;93773.94;5031503;28;20033;-43
2021/05/22 04:47:43;;;;;;;2.03;1.92;;;;;;;8.34;76.62;93769.63;5031199;28;20029;-41
2021/05/22 04:50:09;;;;;;;1.67;1.10;;;;;;;8.56;76.42;93772.00;5031235;28;20106;-41
2021/05/22 04:52:34;;;;;;;3.85;1.38;;;;;;;8.74;76.93;93760.16;5030998;28;20550;-43
2021/05/22 04:55:00;;;;;;;3.40;2.35;;;;;;;8.99;76.40;93757.91;5030656;28;20168;-42
2021/05/22 04:57:25;;;;;;;3.45;2.88;;;;;;;9.32;75.13;93757.22;5031088;28;20171;-43
2021/05/22 04:59:51;;;;;;;3.05;2.35;;;;;;;9.38;74.88;93743.31;5031091;28;20018;-43
2021/05/22 05:02:16;;;;;;;6.82;4.50;;;;;;;9.61;73.99;93749.84;5030583;28;20029;-43
2021/05/22 05:04:42;;;;;;;9.15;6.25;;;;;;;9.86;73.42;93756.53;5030976;28;20029;-43
2021/05/22 05:07:07;;;;;;;3.63;2.58;;;;;;;10.10;72.87;93755.47;5030048;28;20033;-42
2021/05/22 05:09:34;;;;;;;2.85;2.50;;;;;;;10.25;72.27;93759.13;5030633;28;20036;-44
2021/05/22 05:12:03;;;;;;;4.00;2.13;;;;;;;10.32;71.62;93766.75;5030757;28;20025;-43
2021/05/22 05:14:29;;;;;;;9.95;2.38;;;;;;;10.35;70.91;93771.16;5030530;28;20022;-43
2021/05/22 05:16:54;;;;;;;3.65;2.00;;;;;;;10.23;72.26;93777.50;5030345;28;20391;-42
2021/05/22 05:19:20;;;;;;;3.03;2.72;;;;;;;10.05;72.63;93778.44;5030387;28;20029;-44
2021/05/22 05:21:46;;;;;;;3.13;2.55;;;;;;;10.24;72.47;93768.72;5030192;28;20033;-43
2021/05/22 05:24:11;;;;;;;2.03;1.90;;;;;;;10.31;73.02;93764.53;5030742;28;20022;-43
2021/05/22 05:26:37;;;;;;;3.08;2.13;;;;;;;10.38;73.35;93770.09;5030544;28;20112;-43
2021/05/22 05:29:03;;;;;;;1.70;1.60;;;;;;;10.48;73.31;93770.38;5030105;28;20067;-43
2021/05/22 05:31:28;;;;;;;1.40;1.25;;;;;;;10.74;74.15;93772.97;5030348;28;20486;-43
2021/05/22 05:33:53;;;;;;;2.80;2.47;;;;;;;10.96;73.06;93769.59;5029580;28;20033;-41
2021/05/22 05:36:19;;;;;;;2.05;1.90;;;;;;;11.11;72.85;93782.78;5030305;28;20029;-43
2021/05/22 05:38:44;;;;;;;1.83;1.73;;;;;;;11.14;72.24;93782.41;5029859;28;20033;-42
2021/05/22 05:41:10;;;;;;;2.72;1.98;;;;;;;11.18;72.22;93782.06;5029269;28;20483;-42
2021/05/22 05:43:35;;;;;;;1.67;1.58;;;;;;;11.13;72.74;93785.72;5029382;28;20022;-42
2021/05/22 05:46:01;;;;;;;1.40;1.30;;;;;;;11.11;73.12;93794.53;5028989;28;20032;-42
2021/05/22 05:48:26;;;;;;;2.45;2.17;;;;;;;11.26;73.18;93807.72;5029720;28;20017;-42
2021/05/22 05:50:52;;;;;;;5.60;3.08;;;;;;;11.36;72.54;93803.91;5029184;28;20033;-41
2021/05/22 05:53:18;;;;;;;8.10;3.70;;;;;;;11.38;73.21;93800.59;5027138;28;20171;-42
2021/05/22 05:55:43;;;;;;;13.55;4.35;;;;;;;11.39;73.57;93805.56;5030058;28;20091;-42
2021/05/22 05:58:08;;;;;;;8.20;3.75;;;;;;;11.55;72.57;93802.88;5029921;28;20029;-46
2021/05/22 06:00:34;;;;;;;2.33;1.52;;;;;;;11.70;72.72;93803.72;5029113;28;20032;-42
2021/05/22 06:02:59;;;;;;;2.60;2.25;;;;;;;11.70;73.08;93802.97;5027602;28;20029;-44
2021/05/22 06:05:25;;;;;;;2.75;1.92;;;;;;;11.97;72.81;93802.16;5029096;28;20025;-41
2021/05/22 06:07:50;;;;;;;3.10;1.98;;;;;;;12.15;72.76;93798.31;5029026;28;20024;-41
2021/05/22 06:10:16;;;;;;;2.38;2.10;;;;;;;12.21;72.23;93800.16;5029285;28;20399;-41
2021/05/22 06:12:42;;;;;;;2.88;2.30;;;;;;;12.35;72.40;93804.25;5029237;28;20529;-41
2021/05/22 06:17:40;;;;;;;3.47;2.30;;;;;;;12.46;71.56;93809.41;5029703;28;20107;-44
2021/05/22 06:20:06;;;;;;;3.63;2.95;;;;;;;12.54;72.66;93810.91;5029245;28;20112;-43
2021/05/22 06:22:32;;;;;;;13.32;3.45;;;;;;;12.71;72.14;93807.59;5029558;28;20033;-45
2021/05/22 06:24:58;;;;;;;4.07;2.92;;;;;;;12.81;72.09;93805.75;5029392;28;20418;-42
2021/05/22 06:27:23;;;;;;;6.15;3.22;;;;;;;12.97;71.37;93812.78;5042687;28;20430;-43
2021/05/22 06:29:49;;;;;;;4.47;2.47;;;;;;;13.00;72.98;93803.34;5049136;28;20028;-44
2021/05/22 06:32:14;;;;;;;5.28;3.50;;;;;;;13.25;73.12;93811.84;5048533;28;20055;-44
2021/05/22 06:34:39;;;;;;;3.92;3.13;;;;;;;13.36;72.72;93809.38;5038063;28;20079;-42
2021/05/22 06:37:05;;;;;;;4.88;3.50;;;;;;;13.81;72.73;93805.00;5026390;28;20037;-43
2021/05/22 06:39:30;;;;;;;4.43;2.85;;;;;;;14.21;73.40;93800.91;5027164;28;20030;-41
2021/05/22 06:41:56;;;;;;;7.65;4.18;;;;;;;14.49;69.85;93805.38;5028773;28;20122;-43
2021/05/22 06:44:25;;;;;;;4.40;3.38;;;;;;;14.95;69.17;93805.78;5031007;28;20567;-42
2021/05/22 06:46:51;;;;;;;4.85;3.40;;;;;;;15.41;65.82;93806.09;5031231;28;20108;-42
2021/05/22 06:49:18;;;;;;;5.00;3.60;;;;;;;15.88;63.62;93805.78;5030941;28;20044;-43
2021/05/22 06:51:44;;;;;;;4.60;2.30;;;;;;;15.67;64.76;93809.00;5031206;28;20483;-43
2021/05/22 06:54:09;;;;;;;1.38;1.15;;;;;;;15.79;62.36;93795.31;5030909;28;20041;-43
2021/05/22 06:56:35;;;;;;;3.88;1.38;;;;;;;15.93;58.58;93782.53;5030884;28;20116;-43
2021/05/22 06:59:00;;;;;;;2.67;1.17;;;;;;;16.46;56.04;93796.47;5030963;28;20044;-42
2021/05/22 07:01:27;;;;;;;3.92;1.58;;;;;;;16.78;55.58;93784.34;5030859;28;20025;-43
2021/05/22 07:03:54;;;;;;;0.80;0.75;;;;;;;16.91;53.86;93794.38;5030629;28;20521;-41
2021/05/22 07:06:19;;;;;;;1.08;1.05;;;;;;;17.08;52.26;93794.25;5030807;28;20190;-41
2021/05/22 07:08:45;;;;;;;1.20;1.10;;;;;;;17.30;50.36;93796.66;5024195;28;20744;-43
2021/05/22 07:11:10;;;;;;;1.23;1.00;;;;;;;17.53;49.94;93784.38;5027138;28;20079;-43
2021/05/22 07:13:35;;;;;;;1.52;1.27;;;;;;;17.81;50.99;93786.44;5050626;28;20032;-42
2021/05/22 07:16:01;;;;;;;0.90;0.90;;;;;;;18.11;49.84;93791.41;5050341;28;20063;-42
2021/05/22 07:18:26;;;;;;;0.77;0.77;;;;;;;18.13;46.28;93795.09;5050728;28;20607;-43
2021/05/22 07:20:52;;;;;;;0.65;0.60;;;;;;;18.25;46.79;93809.22;5050146;28;20025;-43
2021/05/22 07:23:17;;;;;;;0.70;0.70;;;;;;;18.38;46.32;93816.41;5038431;28;20025;-43
2021/05/22 07:25:43;;;;;;;0.90;0.77;;;;;;;18.52;46.70;93817.41;5012722;28;20105;-42
2021/05/22 07:28:13;;;;;;;0.73;0.73;;;;;;;18.79;48.64;93820.72;5030445;28;20120;-43
2021/05/22 07:30:38;;;;;;;1.20;1.10;;;;;;;19.10;44.84;93818.69;5030528;28;20030;-42
2021/05/22 07:33:04;;;;;;;1.30;1.20;;;;;;;19.36;44.42;93823.28;5031146;28;20021;-42
2021/05/22 07:35:29;;;;;;;1.35;0.90;;;;;;;19.55;43.36;93828.06;5032067;28;20128;-41
2021/05/22 07:37:55;;;;;;;1.00;0.90;;;;;;;20.17;43.73;93834.25;5032326;28;20080;-42
2021/05/22 07:40:20;;;;;;;1.40;1.30;;;;;;;20.73;44.14;93832.25;5032172;28;20025;-42
2021/05/22 07:42:50;;;;;;;1.17;1.08;;;;;;;21.10;40.72;93818.41;5032054;28;20028;-42
2021/05/22 07:45:16;;;;;;;1.15;1.05;;;;;;;21.17;42.30;93794.97;5029304;28;20033;-43
2021/05/22 07:47:42;;;;;;;1.65;1.13;;;;;;;21.59;42.42;93796.78;5032324;28;20100;-44
2021/05/22 07:50:08;;;;;;;1.20;1.08;;;;;;;21.93;40.20;93793.19;5041650;28;20495;-43
2021/05/22 07:52:34;;;;;;;1.50;1.40;;;;;;;21.96;40.62;93786.31;5052233;28;20028;-42
2021/05/22 07:54:59;;;;;;;1.88;1.20;;;;;;;22.73;40.58;93777.28;5052078;28;20425;-42
2021/05/22 07:57:25;;;;;;;7.28;1.65;;;;;;;23.69;38.38;93775.31;5052233;28;20024;-44
2021/05/22 07:59:50;;;;;;;2.45;1.50;;;;;;;24.56;36.28;93760.56;5050897;28;20028;-42
2021/05/22 08:02:16;;;;;;;0.70;0.70;;;;;;;25.43;34.80;93756.81;5049867;28;20021;-42
2021/05/22 08:04:42;;;;;;;0.77;0.73;;;;;;;25.53;34.13;93768.56;5035557;28;20021;-42
2021/05/22 08:07:07;;;;;;;3.78;0.82;;;;;;;25.59;32.42;93774.50;5028437;28;20687;-41
2021/05/22 08:09:33;;;;;;;1.77;1.10;;;;;;;26.03;32.86;93772.84;5029261;28;20021;-43
2021/05/22 08:11:59;;;;;;;0.90;0.90;;;;;;;26.48;32.86;93775.41;5028869;28;20029;-40
2021/05/22 08:14:24;;;;;;;1.58;0.98;;;;;;;25.88;30.00;93773.63;5026131;28;20030;-43
2021/05/22 08:16:49;;;;;;;1.00;0.90;;;;;;;25.05;32.05;93774.88;5029024;28;20033;-44
2021/05/22 08:19:15;;;;;;;0.82;0.68;;;;;;;24.61;31.96;93773.50;5028778;28;20037;-41
2021/05/22 08:21:41;;;;;;;1.00;0.90;;;;;;;24.10;33.73;93776.72;5029409;28;20033;-44
2021/05/22 08:24:08;;;;;;;1.30;0.93;;;;;;;24.05;34.91;93777.88;5029583;28;20029;-42
2021/05/22 08:26:34;;;;;;;2.40;0.93;;;;;;;23.87;34.71;93774.13;5029438;28;20495;-41
2021/05/22 08:29:01;;;;;;;1.13;0.80;;;;;;;24.30;35.63;93776.97;5029178;28;20038;-43
2021/05/22 08:31:26;;;;;;;0.75;0.73;;;;;;;24.26;34.64;93776.03;5029549;28;20037;-43
2021/05/22 08:33:51;;;;;;;1.40;0.95;;;;;;;24.36;33.18;93773.72;5029618;28;20410;-43
2021/05/22 08:36:17;;;;;;;0.80;0.77;;;;;;;24.30;33.31;93764.97;5029302;28;20122;-42
2021/05/22 08:38:43;;;;;;;1.00;0.80;;;;;;;24.03;31.52;93766.47;5029971;28;20025;-42
2021/05/22 08:41:09;;;;;;;1.48;1.17;;;;;;;24.40;32.90;93769.00;5029564;28;20033;-43
2021/05/22 08:43:35;;;;;;;2.33;1.00;;;;;;;24.88;34.41;93781.88;5029226;28;20033;-42
2021/05/22 08:46:01;;;;;;;1.65;1.30;;;;;;;24.86;33.85;93755.63;5029052;28;20029;-42
2021/05/22 08:48:27;;;;;;;0.50;0.50;;;;;;;25.68;32.21;93769.91;5028709;28;20181;-45
2021/05/22 08:50:53;;;;;;;0.55;0.55;;;;;;;26.39;29.42;93774.34;5023917;28;20116;-44
2021/05/22 08:53:19;;;;;;;3.88;0.85;;;;;;;26.85;30.29;93767.72;5018373;28;20018;-42
2021/05/22 08:55:44;;;;;;;3.58;0.90;;;;;;;27.18;29.74;93769.66;5009636;28;20030;-41
2021/05/22 08:58:10;;;;;;;1.08;0.68;;;;;;;27.13;29.32;93776.56;5009766;28;20018;-40
2021/05/22 09:00:39;;;;;;;4.70;0.68;;;;;;;27.56;28.88;93773.22;5028756;28;20489;-40
2021/05/22 09:03:07;;;;;;;0.60;0.57;;;;;;;28.23;27.78;93779.13;5027214;28;20026;-40
2021/05/22 09:05:32;;;;;;;0.88;0.75;;;;;;;28.05;27.31;93778.50;5029752;28;20040;-40
2021/05/22 09:08:00;;;;;;;0.63;0.63;;;;;;;28.50;28.03;93785.00;5029276;28;20013;-39
2021/05/22 09:10:27;;;;;;;1.50;0.60;;;;;;;29.35;24.35;93782.00;5030197;28;20021;-42
2021/05/22 09:13:06;;;;;;;1.25;1.08;;;;;;;30.59;25.77;93764.03;5029870;28;20517;-40
2021/05/22 09:15:34;;;;;;;1.67;0.90;;;;;;;31.54;22.63;93760.50;5029355;28;20046;-41
2021/05/22 09:18:02;;;;;;;0.47;0.43;;;;;;;31.67;22.41;93756.50;5027400;28;20714;-40
2021/05/22 09:20:50;;;;;;;0.68;0.60;;;;;;;32.38;20.16;93747.84;5030017;28;20711;-40
2021/05/22 09:23:23;;;;;;;1.08;0.82;;;;;;;32.36;21.89;93744.25;5026506;28;20455;-40
2021/05/22 09:25:54;;;;;;;0.80;0.80;;;;;;;31.39;20.09;93745.94;5030109;28;20021;-40
2021/05/22 09:28:34;;;;;;;0.50;0.50;;;;;;;29.88;21.95;93750.81;5027103;28;20031;-42
2021/05/22 09:31:00;;;;;;;0.70;0.60;;;;;;;30.13;22.76;93740.03;5018838;28;20036;-40
2021/05/22 09:33:28;;;;;;;0.70;0.63;;;;;;;30.65;21.49;93749.91;5028389;28;20406;-41
2021/05/22 09:36:00;;;;;;;1.38;1.23;;;;;;;29.62;21.76;93749.34;5026742;28;20025;-38
2021/05/22 09:38:39;;;;;;;0.80;0.80;;;;;;;29.69;21.15;93756.66;5029583;28;20033;-40
2021/05/22 09:41:23;;;;;;;0.88;0.85;;;;;;;29.60;22.60;93752.13;5012061;28;20026;-40
2021/05/22 09:44:18;;;;;;;10.93;1.00;;;;;;;28.62;23.54;93750.59;5030071;28;20025;-40
2021/05/22 09:46:46;;;;;;;3.63;0.60;;;;;;;28.20;25.20;93749.19;5029898;28;20418;-41
2021/05/22 09:49:24;;;;;;;1.58;0.80;;;;;;;28.02;26.92;93746.50;5029928;28;20035;-42
2021/05/22 09:51:59;;;;;;;0.63;0.63;;;;;;;27.29;25.43;93739.59;5029694;28;20087;-42
2021/05/22 09:54:53;;;;;;;2.53;0.57;;;;;;;27.05;26.32;93733.72;5029910;28;20037;-42
2021/05/22 09:57:42;;;;;;;0.82;0.82;;;;;;;26.67;26.61;93743.59;5028652;28;20502;-43
2021/05/22 10:00:08;;;;;;;22.65;2.30;;;;;;;26.29;28.44;93737.84;5025390;28;20033;-42
2021/05/22 10:03:01;;;;;;;0.85;0.57;;;;;;;26.38;28.23;93736.06;5028587;28;20179;-45
2021/05/22 10:05:33;;;;;;;5.22;1.42;;;;;;;26.66;28.77;93719.47;5029652;28;20041;-46
2021/05/22 10:08:00;;;;;;;1.73;1.08;;;;;;;27.07;28.25;93731.00;5029461;28;20018;-44
2021/05/22 10:10:45;;;;;;;0.75;0.70;;;;;;;27.48;28.64;93722.59;5029444;28;20035;-44
2021/05/22 10:13:11;;;;;;;2.45;1.10;;;;;;;28.27;27.49;93713.94;5026544;28;20659;-43
2021/05/22 10:15:37;;;;;;;1.17;0.98;;;;;;;29.65;26.60;93728.09;5028390;28;20048;-46
2021/05/22 10:18:04;;;;;;;0.35;0.32;;;;;;;30.22;24.39;93713.22;5011504;28;20108;-43
2021/05/22 10:20:29;;;;;;;0.85;0.70;;;;;;;30.88;23.11;93689.22;5029461;28;20658;-44
2021/05/22 10:22:55;;;;;;;0.98;0.60;;;;;;;31.80;22.32;93703.94;5028678;28;20025;-45
2021/05/22 10:25:21;;;;;;;2.15;1.13;;;;;;;32.59;23.05;93700.38;5029047;28;20060;-43
2021/05/22 10:27:47;;;;;;;0.98;0.95;;;;;;;32.84;21.31;93688.59;5028920;28;20556;-42
2021/05/22 10:30:13;;;;;;;0.93;0.70;;;;;;;33.60;20.16;93697.50;5026264;28;20022;-43
2021/05/22 10:32:39;;;;;;;2.25;1.52;;;;;;;34.23;20.99;93696.06;5026796;28;20079;-41
2021/05/22 10:35:10;;;;;;;0.75;0.63;;;;;;;34.59;19.22;93683.47;5026855;28;20106;-42
2021/05/22 10:37:36;;;;;;;1.00;0.68;;;;;;;34.58;21.01;93687.78;5027214;28;20079;-40
2021/05/22 10:40:03;;;;;;;0.73;0.63;;;;;;;34.37;19.95;93686.13;5028026;28;20120;-43
2021/05/22 10:42:32;;;;;;;2.17;0.77;;;;;;;33.37;19.01;93687.19;5010678;28;20029;-41
2021/05/22 10:44:58;;;;;;;1.08;0.90;;;;;;;32.94;20.44;93684.44;5028351;28;20036;-43
2021/05/22 10:47:28;;;;;;;0.65;0.57;;;;;;;33.89;20.68;93675.63;5028952;28;20112;-45
2021/05/22 10:49:58;;;;;;;1.35;0.90;;;;;;;34.53;20.66;93675.53;5026042;28;20031;-43
2021/05/22 10:52:29;;;;;;;0.65;0.65;;;;;;;34.19;20.33;93669.50;5029134;28;20017;-41
2021/05/22 10:55:10;;;;;;;0.63;0.63;;;;;;;33.34;21.14;93654.22;5023470;28;20021;-41
2021/05/22 10:57:47;;;;;;;1.13;0.90;;;;;;;33.30;19.92;93645.59;5026248;28;20029;-45
2021/05/22 11:00:16;;;;;;;3.03;0.68;;;;;;;32.58;20.50;93645.31;5028760;28;20030;-47
2021/05/22 11:02:45;;;;;;;0.65;0.65;;;;;;;31.99;20.31;93637.91;5027727;28;20030;-39
2021/05/22 11:05:23;;;;;;;0.50;0.50;;;;;;;31.80;20.20;93646.81;5027484;28;20395;-46
2021/05/22 11:07:49;;;;;;;0.52;0.52;;;;;;;31.56;21.83;93629.25;5027672;28;20053;-41
2021/05/22 11:10:39;;;;;;;1.00;0.88;;;;;;;31.38;21.67;93636.03;5009597;28;20522;-41
2021/05/22 11:13:09;;;;;;;0.70;0.50;;;;;;;30.11;22.06;93634.63;5026157;28;20034;-40
2021/05/22 11:15:51;;;;;;;0.50;0.47;;;;;;;30.31;20.10;93629.44;5026149;28;20136;-42
2021/05/22 11:18:27;;;;;;;0.68;0.63;;;;;;;30.45;19.74;93621.22;5024744;28;20030;-39
2021/05/22 11:21:08;;;;;;;0.90;0.52;;;;;;;30.46;21.34;93619.81;5026418;28;20025;-42
2021/05/22 11:23:59;;;;;;;1.70;0.77;;;;;;;29.75;22.24;93608.84;5026804;28;20064;-41
2021/05/22 11:26:42;;;;;;;0.75;0.60;;;;;;;28.57;22.74;93611.91;5026890;28;20037;-40
2021/05/22 11:29:08;;;;;;;1.13;0.63;;;;;;;28.28;25.02;93610.34;5030182;28;20057;-40
2021/05/22 11:31:34;;;;;;;1.63;0.70;;;;;;;28.62;22.70;93607.81;5029714;28;20503;-41
2021/05/22 11:34:22;;;;;;;0.50;0.50;;;;;;;28.30;23.10;93607.56;5029961;28;20103;-40
2021/05/22 11:37:09;;;;;;;0.75;0.65;;;;;;;27.91;25.08;93604.88;5027916;28;20032;-39
2021/05/22 11:39:38;;;;;;;13.02;0.98;;;;;;;27.61;24.36;93610.28;5029403;28;20453;-39
2021/05/22 11:42:22;;;;;;;;;;;;;;;27.46;22.82;93609.06;5032983;28;20425;-40